Overview Statistics Trail Chart Weather Telemetry Raw packets
 

This is the latest recevied weather packets stored in our database for station/object DL2GPS-3. If no packets are shown the sender has not sent any weather packets the latest 10 day(s).

<< 33 34 35 36 37 38 39 >>
Time Temp. Humidity Pressure Rain* Wind** Luminosity Snow
1788195514 14.44° C 10% - - - - -
1788194909 14.44° C 10% - - - - -
1788194304 16.11° C 84% 1022.9 hPa - - - -
1788193699 16.67° C 68% 1022.2 hPa - - - -
1788193094 16.67° C 67% 1022.1 hPa - - - -
1788192490 17.22° C 65% 1021.9 hPa - - - -
1788191885 17.78° C 68% 1021.7 hPa - - - -
1788191280 18.33° C 68% 1021.8 hPa - - - -
1788190675 18.33° C 65% 1021.7 hPa - - - -
1788190071 18.89° C 63% 1021.4 hPa - - - -
1788189467 18.33° C 63% 1021.6 hPa - - - -
1788188860 18.33° C 65% 1021.5 hPa - - - -
1788188255 18.33° C 67% 1021.4 hPa - - - -
1788187650 18.33° C 64% 1021.4 hPa - - - -
1788187059 19.44° C 64% 1021.4 hPa - - - -
1788186440 19.44° C 62% 1021.1 hPa - - - -
1788185835 18.89° C 64% 1021.3 hPa - - - -
1788185230 18.89° C 67% 1021.3 hPa - - - -
1788184624 19.44° C 67% 1021.3 hPa - - - -
1788184020 20° C 65% 1021.5 hPa - - - -
1788183415 20° C 65% 1021.3 hPa - - - -
1788182810 20.56° C 63% 1021.6 hPa - - - -
1788182204 20° C 65% 1021.6 hPa - - - -
1788181599 19.44° C 64% 1021.7 hPa - - - -
1788180994 20° C 64% 1021.6 hPa - - - -

* Rain since midnight (hover to see other rain measurements)
** Current wind speed in m/s (hover to see current wind gust speed)